Weather History for Ortonville, MN

Change the Weather History Date:

Tuesday, May 28, 2013

  Actual Average (KAQP) Record (KAQP)
Temperature  
Mean Temperature 63 °F -  
Max Temperature 71 °F 69 °F 91 °F (2006)
Min Temperature 55 °F 47 °F 39 °F (2004)
Degree Days  
Heating Degree Days 2    
Growing Degree Days 13 (Base 50)    
Moisture  
Dew Point 55 °F    
Average Humidity 83    
Maximum Humidity 94    
Minimum Humidity 60    
Precipitation  
Precipitation 0.00 in - - ()
Sea Level Pressure  
Sea Level Pressure 29.72 in    
Wind  
Wind Speed 7 mph (SE)    
Max Wind Speed 14 mph    
Max Gust Speed 21 mph    
Visibility 7 miles    
Events      
Averages and records for this station are not official NWS values.
T = Trace of Precipitation, MM = Missing Value Source: NWS Daily Summary

Daily Weather History Graph

Daily Weather History Graph

Search for Another Location

Airport:

Trip Planner

Search our weather history database for the weather conditions in past years. The results will help you decide how hot, cold, wet, or windy it might be!

Date:

Astronomy

May. 28, 2013 Rise Set
Actual Time 5:43 AM CDT 9:03 PM CDT
Civil Twilight 5:07 AM CDT 9:39 PM CDT
Nautical Twilight 4:20 AM CDT 10:26 PM CDT
Astronomical Twilight 3:20 AM CDT 11:26 PM CDT
Moon No Moon Rise 9:37 AM CDT (5/28)
Length of Visible Light 16h 32m
Length of Day
15h 19m
Waning Gibbous, 82% of the Moon is Illuminated
May 28
Waning Gibbous
May 31
Last Quarter
Jun 8
New
Jun 16
First Quarter
Jun 23
Full

Hourly Weather History & Observations

Time (CDT) Temp. Dew Point Humidity Pressure Visibility Wind Dir Wind Speed Gust Speed Precip Events Conditions
12:14 AM 57.2 °F 53.6 °F 88% 29.76 in 10.0 mi ESE 11.5 mph - N/A   Overcast
12:34 AM 57.2 °F 53.6 °F 88% 29.75 in 10.0 mi ESE 10.4 mph 20.7 mph N/A   Overcast
12:54 AM 57.2 °F 53.6 °F 88% 29.77 in 10.0 mi SE 10.4 mph - N/A   Overcast
1:14 AM 57.2 °F 53.6 °F 88% 29.79 in 7.0 mi SE 8.1 mph - N/A   Overcast
1:34 AM 57.2 °F 53.6 °F 88% 29.80 in 7.0 mi SE 6.9 mph - N/A   Overcast
1:54 AM 55.4 °F 53.6 °F 94% 29.80 in 7.0 mi SE 6.9 mph - N/A   Overcast
2:14 AM 55.4 °F 53.6 °F 94% 29.80 in 7.0 mi SE 3.5 mph - N/A   Overcast
2:34 AM 55.4 °F 53.6 °F 94% 29.77 in 5.0 mi ESE 5.8 mph - N/A   Overcast
2:54 AM 55.4 °F 53.6 °F 94% 29.77 in 5.0 mi SE 3.5 mph - N/A   Overcast
3:13 AM 55.4 °F 53.6 °F 94% 29.75 in 4.0 mi East 4.6 mph - N/A   Overcast
3:34 AM 55.4 °F 53.6 °F 94% 29.75 in 4.0 mi SE 3.5 mph - N/A   Overcast
3:54 AM 55.4 °F 53.6 °F 94% 29.76 in 5.0 mi South 3.5 mph - N/A   Overcast
4:13 AM 55.4 °F 53.6 °F 94% 29.77 in 5.0 mi South 4.6 mph - N/A   Overcast
4:34 AM 55.4 °F 53.6 °F 94% 29.75 in 3.0 mi SSE 4.6 mph - N/A   Overcast
4:54 AM 55.4 °F 53.6 °F 94% 29.75 in 1.8 mi SSE 3.5 mph - N/A   Overcast
5:13 AM 55.4 °F 53.6 °F 94% 29.73 in 2.0 mi SE 6.9 mph - N/A   Overcast
5:34 AM 55.4 °F 53.6 °F 94% 29.71 in 4.0 mi East 5.8 mph - N/A   Overcast
5:54 AM 55.4 °F 53.6 °F 94% 29.71 in 4.0 mi ESE 4.6 mph - N/A   Overcast
6:14 AM 55.4 °F 51.8 °F 88% 29.71 in 4.0 mi ESE 10.4 mph - N/A   Overcast
6:34 AM 55.4 °F 53.6 °F 94% 29.72 in 4.0 mi SE 9.2 mph - N/A   Overcast
6:54 AM 55.4 °F 53.6 °F 94% 29.71 in 1.8 mi SE 6.9 mph - N/A   Overcast
7:14 AM 55.4 °F 53.6 °F 94% 29.70 in 2.0 mi ESE 10.4 mph - N/A   Overcast
7:34 AM 55.4 °F 53.6 °F 94% 29.69 in 1.2 mi ESE 8.1 mph - N/A   Overcast
7:53 AM 55.4 °F 53.6 °F 94% 29.69 in 2.5 mi ESE 9.2 mph - N/A   Overcast
8:14 AM 55.4 °F 53.6 °F 94% 29.68 in 3.0 mi ESE 9.2 mph - N/A   Overcast
8:34 AM 55.4 °F 53.6 °F 94% 29.68 in 4.0 mi ESE 11.5 mph - N/A   Overcast
8:54 AM 55.4 °F 53.6 °F 94% 29.68 in 5.0 mi SE 13.8 mph 18.4 mph N/A   Overcast
9:14 AM 55.4 °F 53.6 °F 94% 29.73 in 4.0 mi South 4.6 mph - N/A   Overcast
9:34 AM 55.4 °F 53.6 °F 94% 29.74 in 4.0 mi SSW 3.5 mph - N/A   Overcast
9:54 AM 55.4 °F 53.6 °F 94% 29.74 in 5.0 mi South 5.8 mph - N/A   Overcast
10:14 AM 57.2 °F 53.6 °F 88% 29.74 in 7.0 mi South 4.6 mph - N/A   Overcast
10:34 AM 55.4 °F 53.6 °F 94% 29.74 in 5.0 mi SSW 5.8 mph - N/A   Overcast
10:54 AM 55.4 °F 53.6 °F 94% 29.74 in 5.0 mi South 4.6 mph - N/A   Overcast
11:14 AM 57.2 °F 53.6 °F 88% 29.74 in 5.0 mi Calm Calm - N/A   Overcast
11:34 AM 57.2 °F 53.6 °F 88% 29.74 in 4.0 mi Calm Calm - N/A   Overcast
11:54 AM 57.2 °F 53.6 °F 88% 29.73 in 7.0 mi Calm Calm - N/A   Overcast
12:14 PM 57.2 °F 53.6 °F 88% 29.74 in 4.0 mi Calm Calm - N/A   Overcast
12:34 PM 57.2 °F 53.6 °F 88% 29.73 in 7.0 mi East 3.5 mph - N/A   Overcast
12:54 PM 59.0 °F 53.6 °F 82% 29.73 in 10.0 mi Calm Calm - N/A   Overcast
1:14 PM 59.0 °F 53.6 °F 82% 29.73 in 10.0 mi Calm Calm - N/A   Overcast
1:34 PM 60.8 °F 55.4 °F 82% 29.73 in 10.0 mi Calm Calm - N/A   Overcast
1:54 PM 60.8 °F 55.4 °F 82% 29.73 in 10.0 mi SE 4.6 mph - N/A   Overcast
2:14 PM 62.6 °F 55.4 °F 77% 29.72 in 10.0 mi SSE 5.8 mph - N/A   Overcast
2:34 PM 62.6 °F 55.4 °F 77% 29.72 in 10.0 mi ESE 4.6 mph - N/A   Overcast
2:53 PM 64.4 °F 55.4 °F 73% 29.71 in 10.0 mi Calm Calm - N/A   Mostly Cloudy
3:14 PM 64.4 °F 55.4 °F 73% 29.71 in 10.0 mi SE 5.8 mph - N/A   Scattered Clouds
3:34 PM 66.2 °F 55.4 °F 68% 29.72 in 10.0 mi SSE 5.8 mph - N/A   Scattered Clouds
3:53 PM 66.2 °F 55.4 °F 68% 29.71 in 10.0 mi South 4.6 mph - N/A   Mostly Cloudy
4:14 PM 68.0 °F 55.4 °F 64% 29.71 in 10.0 mi SSE 3.5 mph - N/A   Mostly Cloudy
4:34 PM 68.0 °F 55.4 °F 64% 29.71 in 10.0 mi Calm Calm - N/A   Scattered Clouds
4:53 PM 69.8 °F 55.4 °F 60% 29.71 in 10.0 mi South 4.6 mph - N/A   Scattered Clouds
5:14 PM 69.8 °F 57.2 °F 64% 29.70 in 10.0 mi SE 4.6 mph - N/A   Scattered Clouds
5:34 PM 71.6 °F 57.2 °F 60% 29.69 in 10.0 mi SE 6.9 mph - N/A   Scattered Clouds
5:53 PM 69.8 °F 57.2 °F 64% 29.69 in 10.0 mi SE 6.9 mph - N/A   Scattered Clouds
6:14 PM 69.8 °F 57.2 °F 64% 29.69 in 10.0 mi SE 5.8 mph - N/A   Scattered Clouds
6:34 PM 69.8 °F 57.2 °F 64% 29.69 in 10.0 mi SE 8.1 mph - N/A   Clear
6:54 PM 69.8 °F 57.2 °F 64% 29.69 in 10.0 mi SE 6.9 mph - N/A   Clear
7:14 PM 69.8 °F 57.2 °F 64% 29.69 in 10.0 mi SE 10.4 mph - N/A   Clear
7:34 PM 69.8 °F 57.2 °F 64% 29.69 in 10.0 mi ESE 9.2 mph - N/A   Clear
7:54 PM 68.0 °F 55.4 °F 64% 29.68 in 10.0 mi ESE 9.2 mph - N/A   Clear
8:14 PM 66.2 °F 57.2 °F 73% 29.68 in 10.0 mi ESE 9.2 mph - N/A   Clear
8:33 PM 66.2 °F 55.4 °F 68% 29.68 in 10.0 mi SE 8.1 mph - N/A   Clear
8:54 PM 64.4 °F 55.4 °F 73% 29.68 in 10.0 mi ESE 6.9 mph - N/A   Clear
9:14 PM 62.6 °F 55.4 °F 77% 29.69 in 10.0 mi SE 6.9 mph - N/A   Clear
9:33 PM 62.6 °F 55.4 °F 77% 29.70 in 10.0 mi SE 6.9 mph - N/A   Clear
9:54 PM 60.8 °F 55.4 °F 82% 29.69 in 10.0 mi ESE 8.1 mph - N/A   Clear
10:14 PM 60.8 °F 55.4 °F 82% 29.71 in 10.0 mi SE 6.9 mph - N/A   Clear
10:33 PM 60.8 °F 55.4 °F 82% 29.71 in 10.0 mi SE 8.1 mph - N/A   Clear
10:54 PM 59.0 °F 55.4 °F 88% 29.71 in 10.0 mi SE 5.8 mph - N/A   Clear
11:14 PM 57.2 °F 55.4 °F 94% 29.73 in 10.0 mi SE 6.9 mph - N/A   Clear
11:33 PM 57.2 °F 53.6 °F 88% 29.74 in 10.0 mi SE 8.1 mph - N/A   Clear
11:54 PM 57.2 °F 53.6 °F 88% 29.72 in 10.0 mi SE 6.9 mph - N/A   Clear